Time;durP1;ratioP1;P1;durP2;ratioP2;P2;SDS_P1;SDS_P2;PMS_P1;PMS_P2;Temp;Humidity;BMP_temperature;BMP_pressure;BME280_temperature;BME280_humidity;BME280_pressure;Samples;Min_cycle;Max_cycle;Signal;HPM_P1;HPM_P2
2021/11/10 00:01:49;;;;;;;56.08;17.40;;;;;;;9.69;87.81;102427.25;5070649;28;20048;-46
2021/11/10 00:04:15;;;;;;;63.28;16.67;;;;;;;9.69;87.62;102427.25;5060757;28;20545;-46
2021/11/10 00:06:40;;;;;;;64.60;17.77;;;;;;;9.69;87.95;102421.88;5037153;28;20061;-46
2021/11/10 00:09:06;;;;;;;67.15;16.85;;;;;;;9.72;87.71;102429.66;5073938;28;20127;-46
2021/11/10 00:11:32;;;;;;;74.20;19.88;;;;;;;9.70;88.01;102428.94;5068955;28;20480;-48
2021/11/10 00:13:57;;;;;;;75.40;20.77;;;;;;;9.66;88.03;102430.19;5054086;28;20033;-48
2021/11/10 00:16:23;;;;;;;79.97;21.02;;;;;;;9.70;88.19;102434.34;5054182;28;20482;-46
2021/11/10 00:18:51;;;;;;;73.03;20.52;;;;;;;9.72;87.70;102435.06;5054011;28;20104;-47
2021/11/10 00:21:20;;;;;;;74.32;20.20;;;;;;;9.69;87.74;102438.03;5070160;28;20365;-47
2021/11/10 00:23:46;;;;;;;72.63;19.42;;;;;;;9.70;87.50;102431.66;5059051;28;20100;-47
2021/11/10 00:26:11;;;;;;;80.88;19.83;;;;;;;9.70;87.68;102434.34;5074047;28;20466;-46
2021/11/10 00:28:36;;;;;;;89.80;20.15;;;;;;;9.62;87.89;102435.00;5073700;28;20411;-48
2021/11/10 00:31:02;;;;;;;72.88;19.17;;;;;;;9.62;87.83;102429.63;5073181;28;20438;-46
2021/11/10 01:17:10;;;;;;;48.58;14.65;;;;;;;9.43;87.95;102379.38;5053463;28;20079;-47
2021/11/10 01:19:37;;;;;;;49.58;14.68;;;;;;;9.47;87.98;102371.03;5053121;28;20452;-47
2021/11/10 01:22:03;;;;;;;49.88;14.40;;;;;;;9.44;87.73;102375.69;5053545;28;20128;-49
2021/11/10 01:24:28;;;;;;;56.90;16.10;;;;;;;9.44;87.73;102378.38;5052990;28;20037;-47
2021/11/10 01:26:53;;;;;;;50.80;14.38;;;;;;;9.50;87.71;102376.13;5052992;28;20169;-48
2021/11/10 01:29:19;;;;;;;47.03;14.50;;;;;;;9.55;87.15;102369.34;5052978;28;20087;-47
2021/11/10 01:31:44;;;;;;;49.22;15.45;;;;;;;9.52;86.46;102372.31;5052895;28;20049;-50
2021/11/10 01:34:09;;;;;;;57.42;15.68;;;;;;;9.53;86.69;102367.78;5052286;28;20033;-47
2021/11/10 01:36:36;;;;;;;57.88;15.95;;;;;;;9.52;86.63;102372.31;5052941;28;20056;-46
2021/11/10 01:39:05;;;;;;;51.20;14.60;;;;;;;9.56;86.24;102372.91;5053391;28;20530;-49
2021/11/10 01:41:38;;;;;;;55.05;16.05;;;;;;;9.55;86.71;102355.06;5091073;28;20035;-47
2021/11/10 01:44:03;;;;;;;52.05;16.35;;;;;;;9.57;86.37;102361.16;5092887;28;20028;-46
2021/11/10 01:46:29;;;;;;;49.33;14.68;;;;;;;9.61;86.38;102358.06;5092922;28;20521;-46
2021/11/10 01:48:54;;;;;;;60.20;16.45;;;;;;;9.60;85.84;102352.81;5092856;28;20119;-46
2021/11/10 01:51:19;;;;;;;55.67;15.23;;;;;;;9.59;86.25;102346.59;5092790;28;20046;-47
2021/11/10 01:53:45;;;;;;;46.22;14.57;;;;;;;9.58;86.31;102346.72;5088862;28;20024;-47
2021/11/10 01:56:10;;;;;;;53.42;15.15;;;;;;;9.59;86.44;102338.53;5072562;28;20032;-48
2021/11/10 01:58:36;;;;;;;43.05;14.52;;;;;;;9.60;86.51;102332.16;5072726;28;20112;-46
2021/11/10 02:01:02;;;;;;;54.03;15.55;;;;;;;9.61;86.27;102333.00;5072430;28;20028;-46
2021/11/10 02:03:27;;;;;;;46.13;15.43;;;;;;;9.58;86.39;102320.69;5054484;28;20062;-46
2021/11/10 02:05:53;;;;;;;58.03;15.65;;;;;;;9.59;86.62;102313.50;5072502;28;20116;-47
2021/11/10 02:08:18;;;;;;;51.08;14.32;;;;;;;9.61;86.24;102317.75;5072388;28;20511;-47
2021/11/10 02:10:43;;;;;;;44.95;14.35;;;;;;;9.59;86.20;102313.50;5072291;28;20030;-46
2021/11/10 02:13:09;;;;;;;45.40;14.43;;;;;;;9.59;85.83;102308.09;5072380;28;20024;-48
2021/11/10 02:15:35;;;;;;;49.38;14.20;;;;;;;9.60;85.87;102307.09;5054233;28;20020;-46
2021/11/10 02:18:01;;;;;;;47.05;14.00;;;;;;;9.61;86.28;102300.72;5072194;28;20059;-46
2021/11/10 02:20:31;;;;;;;41.88;13.55;;;;;;;9.74;85.54;102285.22;5072323;28;20028;-47
2021/11/10 02:22:56;;;;;;;43.65;14.15;;;;;;;9.70;85.71;102291.84;5072205;28;20103;-46
2021/11/10 02:25:21;;;;;;;38.25;13.05;;;;;;;9.64;86.08;102289.72;5054177;28;20120;-46
2021/11/10 02:27:47;;;;;;;40.15;13.25;;;;;;;9.57;85.95;102291.25;5072054;28;20471;-49
2021/11/10 02:30:17;;;;;;;35.92;13.20;;;;;;;9.55;86.23;102290.56;5072445;28;20048;-49
2021/11/10 02:32:54;;;;;;;42.90;13.70;;;;;;;9.55;86.54;102285.19;5072267;28;20107;-46
2021/11/10 02:35:22;;;;;;;42.45;13.52;;;;;;;9.58;86.69;102290.28;5054371;28;20463;-48
2021/11/10 02:37:53;;;;;;;40.80;13.32;;;;;;;9.54;86.43;102297.78;5072116;28;20035;-48
2021/11/10 02:40:18;;;;;;;48.83;13.85;;;;;;;9.56;86.89;102303.88;5072038;28;20040;-45
2021/11/10 02:42:44;;;;;;;38.53;12.70;;;;;;;9.61;86.48;102308.78;5054372;28;20464;-45
2021/11/10 02:45:11;;;;;;;41.33;13.00;;;;;;;9.54;86.40;102311.22;5073177;28;20412;-48
2021/11/10 02:47:36;;;;;;;34.55;13.20;;;;;;;9.58;86.44;102301.03;5076184;28;20099;-49
2021/11/10 02:50:03;;;;;;;44.28;12.98;;;;;;;9.54;86.49;102302.31;5076107;28;20111;-48
2021/11/10 02:52:29;;;;;;;41.60;13.80;;;;;;;9.50;86.62;102298.19;5076108;28;20098;-49
2021/11/10 02:54:54;;;;;;;44.35;14.82;;;;;;;9.53;86.64;102305.97;5062448;28;20036;-45
2021/11/10 02:57:22;;;;;;;50.63;14.98;;;;;;;9.55;86.38;102301.31;5055934;28;20021;-45
2021/11/10 02:59:47;;;;;;;;;;;;;;;9.53;86.60;102292.53;5056418;28;20037;-48
2021/11/10 03:02:13;;;;;;;39.80;13.38;;;;;;;9.52;86.52;102291.69;5038115;28;19912;-49
2021/11/10 03:04:46;;;;;;;45.13;13.95;;;;;;;9.57;86.14;102288.56;5055761;28;20047;-47
2021/11/10 03:07:13;;;;;;;43.47;13.88;;;;;;;9.55;86.02;102294.09;5037860;28;20025;-48
2021/11/10 03:09:40;;;;;;;42.00;14.60;;;;;;;9.55;86.27;102301.31;5055640;28;20414;-48
2021/11/10 03:12:07;;;;;;;46.65;14.65;;;;;;;9.57;86.24;102299.34;5037789;28;20360;-46
2021/11/10 03:14:34;;;;;;;44.00;15.20;;;;;;;9.55;86.13;102306.69;5055527;28;20021;-46
2021/11/10 03:17:03;;;;;;;50.33;14.60;;;;;;;9.51;86.15;102298.06;5037714;28;20460;-47
2021/11/10 03:19:28;;;;;;;43.63;14.80;;;;;;;9.54;86.25;102299.63;5037720;28;20029;-49
2021/11/10 03:21:54;;;;;;;44.10;16.25;;;;;;;9.54;86.19;102310.38;5055356;28;20384;-46
2021/11/10 03:24:19;;;;;;;46.85;15.57;;;;;;;9.54;86.44;102305.00;5055593;28;20418;-46
2021/11/10 03:26:45;;;;;;;52.25;15.45;;;;;;;9.54;85.83;102302.31;5055512;28;20021;-48
2021/11/10 03:29:11;;;;;;;46.25;16.13;;;;;;;9.55;86.35;102306.69;5055266;28;20490;-45
2021/11/10 03:31:37;;;;;;;44.00;16.08;;;;;;;9.57;85.97;102307.41;5055455;28;20021;-45
2021/11/10 03:34:04;;;;;;;51.55;16.50;;;;;;;9.51;86.03;102305.28;5055634;28;20526;-45
2021/11/10 03:36:29;;;;;;;45.78;15.98;;;;;;;9.49;86.40;102302.72;5055478;28;20029;-46
2021/11/10 03:38:55;;;;;;;54.30;16.90;;;;;;;9.48;86.41;102300.16;5055288;28;20048;-47
2021/11/10 03:41:22;;;;;;;48.60;17.52;;;;;;;9.48;86.61;102300.16;5037944;28;20025;-46
2021/11/10 03:43:47;;;;;;;59.22;16.98;;;;;;;9.48;86.50;102298.34;5055321;28;20033;-46
2021/11/10 03:46:12;;;;;;;56.63;19.98;;;;;;;9.45;86.35;102299.47;5038065;28;20035;-46
2021/11/10 03:48:40;;;;;;;63.97;19.13;;;;;;;9.44;86.26;102300.44;5037886;28;20028;-47
2021/11/10 03:51:06;;;;;;;63.55;17.65;;;;;;;9.43;86.59;102304.13;5055893;28;20109;-49
2021/11/10 03:53:33;;;;;;;64.72;18.08;;;;;;;9.44;86.57;102300.44;5039870;28;20057;-48
2021/11/10 03:55:58;;;;;;;54.72;18.48;;;;;;;9.47;86.78;102310.06;5075075;28;20031;-48
2021/11/10 03:58:24;;;;;;;51.67;17.63;;;;;;;9.45;86.83;102302.16;5074240;28;20020;-48
2021/11/10 04:00:49;;;;;;;62.03;18.65;;;;;;;9.48;86.58;102316.28;5057026;28;20109;-46
2021/11/10 04:03:14;;;;;;;50.58;18.15;;;;;;;9.45;86.65;102306.66;5074751;28;20063;-45
2021/11/10 04:05:42;;;;;;;56.15;17.85;;;;;;;9.44;86.58;102299.59;5074568;28;20024;-44
2021/11/10 04:08:09;;;;;;;57.47;19.52;;;;;;;9.48;86.95;102297.47;5074662;28;20028;-45
2021/11/10 04:10:34;;;;;;;62.80;18.90;;;;;;;9.44;86.33;102311.19;5074369;28;20384;-45
2021/11/10 04:12:59;;;;;;;57.65;18.40;;;;;;;9.43;86.82;102305.97;5074665;28;20029;-45
2021/11/10 04:15:25;;;;;;;53.80;18.65;;;;;;;9.48;86.76;102305.53;5056490;28;20506;-47
2021/11/10 04:17:50;;;;;;;49.55;17.67;;;;;;;9.48;86.51;102305.53;5074725;28;20059;-49
2021/11/10 04:20:15;;;;;;;56.90;17.63;;;;;;;9.43;86.54;102301.44;5074317;28;20079;-46
2021/11/10 04:22:41;;;;;;;61.78;18.80;;;;;;;9.42;86.68;102306.94;5074458;28;20068;-47
2021/11/10 04:25:06;;;;;;;66.20;17.98;;;;;;;9.39;86.81;102299.16;5074338;28;20107;-47
2021/11/10 04:27:32;;;;;;;57.15;18.10;;;;;;;9.34;87.15;102313.00;5074192;28;20024;-48
2021/11/10 04:29:57;;;;;;;53.35;18.13;;;;;;;9.34;86.86;102310.31;5073340;28;20245;-48
2021/11/10 04:32:23;;;;;;;65.78;18.08;;;;;;;9.32;87.10;102312.31;5055265;28;20086;-46
2021/11/10 04:34:48;;;;;;;53.20;16.30;;;;;;;9.38;86.33;102311.75;5072986;28;20020;-46
2021/11/10 04:37:15;;;;;;;61.30;17.50;;;;;;;9.40;86.44;102300.84;5074217;28;20032;-48
2021/11/10 04:39:41;;;;;;;66.00;17.63;;;;;;;9.39;86.36;102313.44;5074146;28;20050;-46
2021/11/10 04:42:08;;;;;;;58.42;17.35;;;;;;;9.35;86.55;102314.72;5075368;28;20030;-47
2021/11/10 04:44:35;;;;;;;57.70;17.35;;;;;;;9.31;86.90;102315.13;5093934;28;20471;-46
2021/11/10 04:47:00;;;;;;;55.55;16.67;;;;;;;9.27;86.65;102311.88;5094224;28;20368;-48
2021/11/10 04:49:28;;;;;;;51.22;16.63;;;;;;;9.27;86.60;102319.06;5093946;28;20034;-45
2021/11/10 04:51:58;;;;;;;61.20;15.27;;;;;;;9.22;86.76;102319.50;5094160;28;20028;-46
2021/11/10 04:54:29;;;;;;;59.85;16.85;;;;;;;9.24;87.10;102328.22;5066721;28;20046;-45
2021/11/10 04:56:55;;;;;;;54.63;15.95;;;;;;;9.21;86.97;102331.19;5073805;28;20471;-45
2021/11/10 04:59:20;;;;;;;60.60;16.35;;;;;;;9.19;87.20;102323.28;5073762;28;20017;-46
2021/11/10 05:04:29;;;;;;;58.28;15.60;;;;;;;9.20;86.92;102335.72;5073871;28;20078;-49
2021/11/10 05:06:55;;;;;;;52.10;15.38;;;;;;;9.22;87.23;102338.28;5062852;28;20021;-48
2021/11/10 05:09:20;;;;;;;52.13;16.33;;;;;;;9.21;87.29;102331.19;5053762;28;20033;-49
2021/11/10 05:11:46;;;;;;;54.15;15.55;;;;;;;9.18;86.70;102334.16;5047561;28;20089;-49
2021/11/10 05:14:11;;;;;;;49.20;14.95;;;;;;;9.22;86.24;102327.53;5052105;28;20033;-48
2021/11/10 05:16:36;;;;;;;46.65;13.82;;;;;;;9.23;86.29;102327.41;5048717;28;20036;-46
2021/11/10 05:19:02;;;;;;;47.10;14.32;;;;;;;9.22;86.16;102327.53;5053639;28;20399;-47
2021/11/10 05:21:27;;;;;;;48.67;13.90;;;;;;;9.23;86.25;102326.53;5054718;28;20025;-49
2021/11/10 05:23:52;;;;;;;50.40;13.40;;;;;;;9.22;86.16;102320.34;5036594;28;20590;-50
2021/11/10 05:26:18;;;;;;;54.78;14.65;;;;;;;9.24;86.21;102320.19;5054589;28;20526;-47
2021/11/10 05:28:43;;;;;;;46.83;13.48;;;;;;;9.26;85.67;102312.84;5053336;28;20045;-46
2021/11/10 05:31:08;;;;;;;47.20;13.10;;;;;;;9.27;85.97;102319.06;5055439;28;20079;-47
2021/11/10 05:33:34;;;;;;;52.35;13.30;;;;;;;9.26;86.15;102315.53;5059545;28;20123;-47
2021/11/10 05:35:59;;;;;;;54.80;15.13;;;;;;;9.26;86.22;102318.22;5063889;28;20043;-47
2021/11/10 05:38:24;;;;;;;49.42;13.05;;;;;;;9.28;86.40;102320.78;5059049;28;20036;-45
2021/11/10 05:40:50;;;;;;;52.33;14.27;;;;;;;9.29;86.39;102317.94;5055106;28;20111;-48
2021/11/10 05:43:15;;;;;;;47.42;12.88;;;;;;;9.31;86.15;102315.13;5056553;28;20035;-46
2021/11/10 05:45:41;;;;;;;53.85;13.88;;;;;;;9.26;85.74;102306.63;5064439;28;20090;-47
2021/11/10 05:48:06;;;;;;;52.30;13.70;;;;;;;9.27;86.27;102309.19;5073227;28;20376;-48
2021/11/10 05:50:32;;;;;;;51.55;13.45;;;;;;;9.26;86.30;102312.84;5046251;28;20298;-50
2021/11/10 05:52:57;;;;;;;44.60;14.05;;;;;;;9.25;86.01;102321.91;5036650;28;20035;-48
2021/11/10 05:55:25;;;;;;;48.95;14.20;;;;;;;9.23;86.52;102313.97;5066514;28;20032;-47
2021/11/10 05:57:51;;;;;;;52.30;14.93;;;;;;;9.24;86.68;102314.81;5055586;28;20079;-46
2021/11/10 06:00:17;;;;;;;67.53;15.88;;;;;;;9.25;86.56;102334.47;5060582;28;20051;-47
2021/11/10 06:02:43;;;;;;;57.63;15.18;;;;;;;9.25;86.73;102332.66;5062167;28;20068;-49
2021/11/10 06:05:10;;;;;;;43.55;13.52;;;;;;;9.30;86.29;102325.03;5051181;28;20078;-47
2021/11/10 06:07:35;;;;;;;54.67;14.10;;;;;;;9.30;86.32;102330.41;5061473;28;20025;-49
2021/11/10 06:10:03;;;;;;;48.28;14.70;;;;;;;9.26;86.64;102328.09;5036048;28;20013;-50
2021/11/10 06:12:28;;;;;;;51.08;14.43;;;;;;;9.22;86.36;102338.28;5041587;28;20142;-46
2021/11/10 06:14:53;;;;;;;53.05;14.32;;;;;;;9.22;86.14;102333.75;5062033;28;20463;-47
2021/11/10 06:17:19;;;;;;;54.35;15.13;;;;;;;9.22;86.20;102339.13;5058729;28;20037;-47
2021/11/10 06:19:44;;;;;;;55.08;14.30;;;;;;;9.21;86.16;102336.56;5058049;28;20029;-47
2021/11/10 06:22:09;;;;;;;61.88;15.00;;;;;;;9.19;86.26;102343.94;5062895;28;20040;-47
2021/11/10 06:24:35;;;;;;;44.97;14.60;;;;;;;9.17;86.00;102340.53;5059455;28;20028;-46
2021/11/10 06:27:00;;;;;;;46.42;13.40;;;;;;;9.17;85.66;102348.59;5061940;28;20107;-47
2021/11/10 06:29:25;;;;;;;48.70;14.43;;;;;;;9.17;86.23;102346.75;5041567;28;20463;-45
2021/11/10 06:31:52;;;;;;;52.20;14.40;;;;;;;9.10;85.35;102350.97;5060844;28;20091;-45
2021/11/10 06:34:17;;;;;;;50.92;13.80;;;;;;;9.07;85.80;102350.38;5057764;28;20029;-49
2021/11/10 06:36:44;;;;;;;52.65;14.45;;;;;;;9.05;85.77;102347.81;5063694;28;20037;-46
2021/11/10 06:39:09;;;;;;;57.05;13.93;;;;;;;9.08;86.11;102344.03;5059829;28;20025;-47
2021/11/10 06:41:35;;;;;;;45.42;13.93;;;;;;;9.06;85.96;102341.50;5038254;28;20055;-45
2021/11/10 06:44:01;;;;;;;40.90;14.15;;;;;;;9.04;84.68;102340.75;5057556;28;20083;-47
2021/11/10 06:46:26;;;;;;;42.97;14.10;;;;;;;8.97;85.29;102350.34;5054643;28;20469;-47
2021/11/10 06:48:51;;;;;;;47.50;14.88;;;;;;;8.97;85.09;102351.19;5067679;28;20024;-46
2021/11/10 06:51:17;;;;;;;34.70;13.38;;;;;;;8.94;85.36;102346.09;5058038;28;20032;-47
2021/11/10 06:53:42;;;;;;;50.97;13.45;;;;;;;8.94;85.35;102343.41;5034036;28;20063;-44
2021/11/10 06:56:08;;;;;;;55.95;15.25;;;;;;;8.98;84.88;102347.53;5053980;28;20032;-44
2021/11/10 06:58:34;;;;;;;45.78;14.38;;;;;;;8.89;84.77;102348.31;5032028;28;20036;-47
2021/11/10 07:00:59;;;;;;;46.05;14.80;;;;;;;8.84;84.72;102352.41;5040781;28;20040;-47
2021/11/10 07:03:25;;;;;;;44.25;15.98;;;;;;;8.82;84.97;102357.91;5064935;28;20031;-45
2021/11/10 07:05:50;;;;;;;43.85;16.10;;;;;;;8.80;84.99;102365.25;5056734;28;20433;-49
2021/11/10 07:08:15;;;;;;;52.90;17.20;;;;;;;8.76;85.27;102366.47;5063738;28;20040;-48
2021/11/10 07:10:41;;;;;;;56.25;16.05;;;;;;;8.83;85.08;102364.97;5046203;28;20032;-48
2021/11/10 07:13:06;;;;;;;61.13;17.48;;;;;;;8.82;85.24;102374.03;5041513;28;20059;-48
2021/11/10 07:15:32;;;;;;;47.33;16.90;;;;;;;8.75;85.00;102384.44;5060994;28;20025;-48
2021/11/10 07:17:57;;;;;;;48.78;17.75;;;;;;;8.64;85.29;102384.50;5066259;28;20027;-49
2021/11/10 07:20:22;;;;;;;50.78;18.10;;;;;;;8.65;85.50;102390.72;5066435;28;20087;-47
2021/11/10 07:22:48;;;;;;;50.65;16.98;;;;;;;8.70;85.17;102385.81;5049521;28;20041;-48
2021/11/10 07:25:14;;;;;;;66.32;18.33;;;;;;;8.69;85.69;102384.97;5043901;28;20017;-49
2021/11/10 07:27:41;;;;;;;54.03;18.17;;;;;;;8.70;85.28;102392.03;5053110;28;20402;-47
2021/11/10 07:30:09;;;;;;;59.78;19.27;;;;;;;8.67;85.78;102392.28;5071094;28;20045;-47
2021/11/10 07:32:35;;;;;;;52.67;18.85;;;;;;;8.69;85.22;102395.69;5070799;28;20494;-49
2021/11/10 07:35:04;;;;;;;49.85;17.25;;;;;;;8.65;85.09;102398.78;5034505;28;20082;-45
2021/11/10 07:37:29;;;;;;;68.55;18.83;;;;;;;8.55;84.93;102399.53;5071267;28;20060;-48
2021/11/10 07:39:55;;;;;;;64.18;19.58;;;;;;;8.55;85.38;102404.91;5071580;28;20055;-47
2021/11/10 07:42:20;;;;;;;61.10;19.95;;;;;;;8.55;85.07;102383.44;5053164;28;20063;-45
2021/11/10 07:44:46;;;;;;;60.03;18.88;;;;;;;8.57;84.63;102377.94;5071609;28;20033;-48
2021/11/10 07:47:16;;;;;;;56.60;18.05;;;;;;;8.57;84.96;102373.44;5071737;28;20428;-45
2021/11/10 07:49:45;;;;;;;57.30;18.23;;;;;;;8.64;84.74;102378.28;5054738;28;20134;-47
2021/11/10 07:52:11;;;;;;;67.10;20.33;;;;;;;8.66;84.82;102366.44;5071759;28;20451;-47
2021/11/10 07:54:37;;;;;;;55.03;17.73;;;;;;;8.71;84.51;102349.91;5051680;28;20036;-47
2021/11/10 07:57:02;;;;;;;53.63;17.50;;;;;;;8.74;84.38;102347.84;5070476;28;20023;-46
2021/11/10 07:59:28;;;;;;;59.00;17.33;;;;;;;8.80;84.31;102349.13;5053573;28;20028;-46
2021/11/10 08:01:53;;;;;;;61.50;18.63;;;;;;;8.85;84.21;102346.91;5054090;28;20032;-47
2021/11/10 08:04:19;;;;;;;58.72;17.80;;;;;;;8.94;83.82;102340.72;5072153;28;20240;-48
2021/11/10 08:06:44;;;;;;;69.50;20.20;;;;;;;9.00;83.61;102344.69;5052704;28;20080;-50
2021/11/10 08:09:09;;;;;;;67.00;17.73;;;;;;;8.98;83.24;102360.13;5067296;28;20049;-46
2021/11/10 08:11:35;;;;;;;50.38;17.05;;;;;;;8.95;83.64;102371.09;5068215;28;20025;-46
2021/11/10 08:14:00;;;;;;;51.90;17.45;;;;;;;8.96;83.34;102386.25;5070500;28;20418;-45
2021/11/10 08:16:26;;;;;;;43.13;16.48;;;;;;;8.94;83.74;102378.31;5072493;28;20472;-46
2021/11/10 08:18:51;;;;;;;49.85;17.40;;;;;;;8.94;83.22;102378.31;5071852;28;20028;-44
2021/11/10 08:21:18;;;;;;;67.65;18.17;;;;;;;8.86;82.51;102353.13;5069237;28;20040;-48
2021/11/10 08:23:43;;;;;;;51.20;17.48;;;;;;;8.88;82.55;102346.63;5069147;28;20021;-49
2021/11/10 08:26:08;;;;;;;49.08;17.02;;;;;;;8.99;82.34;102351.91;5072556;28;20063;-47
2021/11/10 08:28:34;;;;;;;47.08;17.05;;;;;;;9.06;81.71;102364.78;5072214;28;20059;-50
2021/11/10 08:30:59;;;;;;;55.83;17.13;;;;;;;8.98;81.81;102371.69;5067971;28;20059;-48
2021/11/10 08:33:25;;;;;;;56.65;17.35;;;;;;;9.06;82.14;102375.53;5074198;28;20421;-49
2021/11/10 08:35:50;;;;;;;60.88;16.45;;;;;;;9.12;81.47;102358.88;5065107;28;20032;-46
2021/11/10 08:38:17;;;;;;;50.58;17.90;;;;;;;9.05;80.45;102365.78;5054236;28;20017;-46
2021/11/10 08:40:42;;;;;;;53.90;16.80;;;;;;;9.02;80.62;102353.47;5066525;28;20029;-46
2021/11/10 08:43:10;;;;;;;43.63;15.98;;;;;;;9.01;80.48;102357.16;5064565;28;20101;-47
2021/11/10 08:45:38;;;;;;;54.65;15.80;;;;;;;9.08;80.32;102357.44;5059599;28;20464;-49
2021/11/10 08:48:05;;;;;;;53.05;15.90;;;;;;;8.94;80.30;102356.81;5064575;28;20055;-46
2021/11/10 08:50:31;;;;;;;51.97;16.42;;;;;;;8.93;80.24;102373.09;5042202;28;20025;-48
2021/11/10 08:52:57;;;;;;;48.60;15.18;;;;;;;8.94;80.01;102378.31;5054001;28;20056;-46
2021/11/10 08:55:24;;;;;;;53.53;17.55;;;;;;;8.92;79.43;102379.44;5053637;28;20056;-49
2021/11/10 08:57:52;;;;;;;51.45;15.82;;;;;;;8.90;79.09;102370.66;5053868;28;20029;-49
2021/11/10 09:00:23;;;;;;;56.10;14.70;;;;;;;8.91;79.57;102375.06;5054868;28;20044;-47
2021/11/10 09:02:49;;;;;;;48.33;15.65;;;;;;;8.94;79.61;102383.69;5054204;28;20033;-45
2021/11/10 09:05:14;;;;;;;52.22;15.60;;;;;;;8.94;78.90;102394.41;5051952;28;20487;-47
2021/11/10 09:07:41;;;;;;;59.60;15.85;;;;;;;8.96;78.38;102379.03;5073314;28;20093;-48
2021/11/10 09:10:09;;;;;;;44.42;15.50;;;;;;;8.93;77.96;102382.00;5071518;28;20021;-47
2021/11/10 09:12:34;;;;;;;48.00;16.08;;;;;;;8.94;77.86;102393.56;5063071;28;20032;-48
2021/11/10 09:15:00;;;;;;;61.92;15.85;;;;;;;8.97;77.65;102404.88;5051160;28;20026;-48
2021/11/10 09:17:26;;;;;;;56.72;16.05;;;;;;;8.95;77.60;102385.41;5055426;28;20078;-45
2021/11/10 09:19:53;;;;;;;50.17;16.02;;;;;;;9.04;77.71;102385.56;5071370;28;20471;-46
2021/11/10 09:22:19;;;;;;;48.92;14.65;;;;;;;9.07;77.02;102391.53;5057877;28;20033;-47
2021/11/10 09:24:44;;;;;;;51.53;15.18;;;;;;;9.14;77.23;102383.78;5053191;28;20094;-47
2021/11/10 09:27:10;;;;;;;53.58;14.70;;;;;;;9.14;76.34;102379.25;5052767;28;20341;-46
2021/11/10 09:29:37;;;;;;;45.17;14.85;;;;;;;9.25;76.23;102380.16;5052802;28;20043;-49
2021/11/10 09:32:03;;;;;;;49.60;15.47;;;;;;;9.28;76.22;102375.34;5052779;28;20029;-46
2021/11/10 09:34:29;;;;;;;53.35;15.23;;;;;;;9.38;76.15;102376.22;5052927;28;20029;-47
2021/11/10 09:36:54;;;;;;;48.78;14.45;;;;;;;9.48;75.58;102381.66;5054163;28;20085;-47
2021/11/10 09:39:22;;;;;;;53.47;15.27;;;;;;;9.54;74.74;102382.94;5052827;28;20075;-48
2021/11/10 09:41:49;;;;;;;39.17;14.60;;;;;;;9.64;74.90;102387.34;5052974;28;20180;-49
2021/11/10 09:44:16;;;;;;;50.35;15.60;;;;;;;9.67;74.45;102392.44;5035714;28;20025;-49
2021/11/10 09:46:42;;;;;;;47.10;14.10;;;;;;;9.84;75.00;102384.69;5052737;28;20033;-46
2021/11/10 09:49:10;;;;;;;46.58;15.23;;;;;;;9.83;73.54;102380.31;5052511;28;20074;-47
2021/11/10 09:51:36;;;;;;;;;;;;;;;9.95;73.64;102376.47;5070083;28;20037;-49
2021/11/10 09:54:05;;;;;;;42.80;14.68;;;;;;;10.06;73.47;102380.91;5052950;28;20051;-46
2021/11/10 09:56:31;;;;;;;41.65;13.55;;;;;;;10.13;72.63;102384.72;5072045;28;20403;-48
2021/11/10 09:58:57;;;;;;;42.45;13.40;;;;;;;10.17;72.46;102378.06;5072921;28;20178;-48
2021/11/10 10:01:23;;;;;;;47.20;13.38;;;;;;;10.32;72.05;102371.28;5072567;28;20500;-49
2021/11/10 10:03:51;;;;;;;42.75;13.68;;;;;;;10.37;72.02;102370.00;5072089;28;20103;-46
2021/11/10 10:06:17;;;;;;;39.67;13.45;;;;;;;10.65;72.46;102365.56;5071720;28;20035;-47
2021/11/10 10:08:44;;;;;;;35.22;13.10;;;;;;;10.91;71.76;102377.41;5054666;28;20024;-49
2021/11/10 10:11:10;;;;;;;36.53;12.68;;;;;;;11.05;70.03;102380.63;5054749;28;20024;-48
2021/11/10 10:13:35;;;;;;;38.42;12.48;;;;;;;11.02;69.32;102373.69;5054675;28;20050;-50
2021/11/10 10:16:00;;;;;;;45.08;13.20;;;;;;;11.42;69.43;102380.59;5052555;28;20040;-47
2021/11/10 10:18:28;;;;;;;31.75;12.25;;;;;;;11.75;69.41;102386.38;5072137;28;20040;-47
2021/11/10 10:20:59;;;;;;;42.10;12.85;;;;;;;11.61;68.11;102391.28;5068223;28;20033;-48
2021/11/10 10:23:29;;;;;;;46.05;12.40;;;;;;;11.95;66.92;102393.34;5058242;28;20380;-49
2021/11/10 10:26:06;;;;;;;40.40;12.27;;;;;;;12.35;65.23;102388.50;5053147;28;20458;-49
2021/11/10 10:28:37;;;;;;;35.47;10.90;;;;;;;12.63;64.07;102391.94;5053765;28;20029;-48
2021/11/10 10:31:05;;;;;;;33.17;11.50;;;;;;;12.95;63.86;102394.88;5060647;28;20032;-46
2021/11/10 10:33:34;;;;;;;36.90;12.05;;;;;;;13.39;62.60;102393.94;5060502;28;20102;-47
2021/11/10 10:36:09;;;;;;;36.30;12.13;;;;;;;12.90;63.06;102399.03;5067457;28;20086;-49
2021/11/10 10:38:43;;;;;;;39.95;12.43;;;;;;;12.66;64.02;102394.31;5067151;28;20070;-47
2021/11/10 10:41:10;;;;;;;39.45;12.55;;;;;;;12.74;64.04;102395.25;5061504;28;20051;-47
2021/11/10 10:43:46;;;;;;;39.37;12.83;;;;;;;12.41;65.02;102393.28;5054799;28;20098;-47
2021/11/10 10:46:12;;;;;;;38.65;12.27;;;;;;;12.74;66.03;102392.53;5063496;28;20283;-46
2021/11/10 10:48:38;;;;;;;36.15;11.05;;;;;;;12.82;64.96;102380.94;5036886;28;20086;-47
2021/11/10 10:51:06;;;;;;;34.65;11.95;;;;;;;12.96;64.24;102387.59;5043427;28;20021;-48
2021/11/10 10:53:38;;;;;;;40.33;12.80;;;;;;;13.20;63.37;102386.88;5066713;28;20029;-50
2021/11/10 10:56:16;;;;;;;37.17;12.55;;;;;;;13.39;63.88;102391.22;5071112;28;20541;-47
2021/11/10 10:58:41;;;;;;;37.13;12.10;;;;;;;13.39;62.71;102391.22;5071662;28;20045;-47
2021/11/10 11:01:24;;;;;;;35.50;11.82;;;;;;;13.34;63.15;102389.00;5054517;28;20036;-47
2021/11/10 11:03:54;;;;;;;37.30;12.85;;;;;;;13.11;64.18;102385.13;5070692;28;20368;-45
2021/11/10 11:06:29;;;;;;;39.58;12.40;;;;;;;13.01;64.57;102379.03;5072787;28;20499;-48
2021/11/10 11:08:56;;;;;;;42.75;13.55;;;;;;;12.81;65.08;102381.94;5075577;28;20024;-46
2021/11/10 11:11:27;;;;;;;33.50;12.35;;;;;;;12.85;64.62;102380.63;5075963;28;20126;-49
2021/11/10 11:13:56;;;;;;;38.90;13.52;;;;;;;12.61;65.72;102372.31;5075425;28;20021;-47
2021/11/10 11:16:27;;;;;;;35.30;13.88;;;;;;;12.66;66.43;102365.44;5075884;28;20021;-48
2021/11/10 11:19:16;;;;;;;35.00;12.57;;;;;;;12.80;66.02;102366.75;5075823;28;20055;-48
2021/11/10 11:21:51;;;;;;;39.08;12.82;;;;;;;12.48;66.42;102365.50;5057439;28;20082;-46
2021/11/10 11:24:34;;;;;;;33.38;12.05;;;;;;;12.43;67.47;102365.13;5073905;28;20040;-45
2021/11/10 11:27:15;;;;;;;46.88;15.02;;;;;;;12.43;67.01;102365.13;5067468;28;20033;-49
2021/11/10 11:29:42;;;;;;;40.38;15.30;;;;;;;12.31;66.65;102369.06;5071775;28;20738;-48
2021/11/10 11:32:38;;;;;;;42.23;14.83;;;;;;;12.36;67.67;102368.63;5040602;28;20033;-49
2021/11/10 11:35:11;;;;;;;45.05;14.77;;;;;;;12.34;68.02;102362.50;5055533;28;20279;-47
2021/11/10 11:37:38;;;;;;;47.80;16.52;;;;;;;12.03;67.75;102363.78;5056220;28;20021;-47
2021/11/10 11:40:07;;;;;;;42.30;16.08;;;;;;;11.62;68.50;102366.00;5061359;28;20040;-46
2021/11/10 11:42:33;;;;;;;40.28;15.07;;;;;;;11.61;69.05;102364.31;5071909;28;20028;-46
2021/11/10 11:44:58;;;;;;;42.72;15.25;;;;;;;11.58;69.37;102369.16;5055172;28;20037;-46
2021/11/10 11:47:25;;;;;;;47.13;16.85;;;;;;;11.48;69.99;102362.97;5066474;28;20052;-46
2021/11/10 11:49:52;;;;;;;41.70;14.82;;;;;;;11.56;69.73;102360.41;5056817;28;20031;-44
2021/11/10 11:52:17;;;;;;;46.40;16.65;;;;;;;11.53;69.73;102355.28;5075096;28;20107;-50
2021/11/10 11:54:49;;;;;;;43.10;16.27;;;;;;;11.50;70.21;102367.22;5074898;28;20112;-47
2021/11/10 11:57:20;;;;;;;37.50;15.30;;;;;;;11.35;70.18;102357.97;5068425;28;20039;-48
2021/11/10 11:59:50;;;;;;;40.20;16.23;;;;;;;11.31;70.79;102356.53;5070152;28;20024;-48
2021/11/10 12:02:20;;;;;;;44.50;16.55;;;;;;;11.14;71.24;102359.03;5054684;28;20032;-47